createdAt,value
2024-01-20T00:00:49.943Z,80.45
2024-01-20T00:01:48.948Z,80.55
2024-01-20T00:02:49.953Z,80.55
2024-01-20T00:03:48.970Z,80.55
2024-01-20T00:04:49.134Z,80.64
2024-01-20T00:05:50.008Z,80.55
2024-01-20T00:06:49.059Z,80.64
2024-01-20T00:07:50.084Z,80.74
2024-01-20T00:08:49.072Z,80.64
2024-01-20T00:09:51.238Z,80.64
2024-01-20T00:10:50.176Z,80.83
2024-01-20T00:11:49.144Z,80.74
2024-01-20T00:12:50.170Z,80.55
2024-01-20T00:13:49.299Z,80.55
2024-01-20T00:14:49.225Z,80.74
2024-01-20T00:15:50.263Z,80.74
2024-01-20T00:16:49.361Z,80.64
2024-01-20T00:17:50.425Z,80.74
2024-01-20T00:18:49.406Z,81.02
2024-01-20T00:19:50.002Z,81.21
2024-01-20T00:20:50.387Z,81.12
2024-01-20T00:21:49.373Z,81.40
2024-01-20T00:22:50.417Z,81.21
2024-01-20T00:23:49.459Z,81.02
2024-01-20T00:24:49.483Z,81.02
2024-01-20T00:25:50.527Z,80.93
2024-01-20T00:26:49.513Z,81.21
2024-01-20T00:27:50.534Z,81.12
2024-01-20T00:28:49.577Z,81.12
2024-01-20T00:29:49.564Z,81.30
2024-01-20T00:30:50.595Z,81.40
2024-01-20T00:31:49.661Z,81.40
2024-01-20T00:32:50.728Z,81.40
2024-01-20T00:33:49.777Z,83.86
2024-01-20T00:34:59.760Z,84.05
2024-01-20T00:35:50.792Z,82.44
2024-01-20T00:36:49.724Z,82.06
2024-01-20T00:37:50.815Z,81.21
2024-01-20T00:38:49.793Z,81.30
2024-01-20T00:39:49.797Z,81.30
2024-01-20T00:40:50.852Z,81.30
2024-01-20T00:41:49.850Z,83.67
2024-01-20T00:42:50.871Z,82.91
2024-01-20T00:43:49.939Z,81.59
2024-01-20T00:44:49.908Z,81.40
2024-01-20T00:45:50.973Z,81.21
2024-01-20T00:46:50.017Z,81.21
2024-01-20T00:47:51.024Z,81.21
2024-01-20T00:48:50.052Z,81.40
2024-01-20T00:49:50.070Z,81.12
2024-01-20T00:50:51.072Z,80.83
2024-01-20T00:51:50.077Z,81.30
2024-01-20T00:52:51.159Z,81.02
2024-01-20T00:53:50.120Z,81.21
2024-01-20T00:54:50.155Z,80.74
2024-01-20T00:55:51.284Z,80.26
2024-01-20T00:56:50.239Z,80.26
2024-01-20T00:57:51.247Z,80.26
2024-01-20T00:58:50.286Z,80.17
2024-01-20T00:59:50.263Z,80.07
2024-01-20T01:00:51.325Z,80.26
2024-01-20T01:01:50.379Z,80.26
2024-01-20T01:02:51.394Z,79.98
2024-01-20T01:03:50.412Z,80.74
2024-01-20T01:04:50.406Z,81.30
2024-01-20T01:05:51.453Z,81.12
2024-01-20T01:06:50.434Z,81.12
2024-01-20T01:07:51.557Z,81.12
2024-01-20T01:08:50.484Z,80.64
2024-01-20T01:09:50.509Z,80.93
2024-01-20T01:10:51.613Z,81.30
2024-01-20T01:11:50.541Z,81.49
2024-01-20T01:12:51.613Z,80.93
2024-01-20T01:13:50.654Z,81.21
2024-01-20T01:14:50.635Z,81.12
2024-01-20T01:15:53.211Z,81.30
2024-01-20T01:16:50.725Z,81.30
2024-01-20T01:17:51.795Z,81.30
2024-01-20T01:18:50.729Z,82.15
2024-01-20T01:19:50.751Z,81.49
2024-01-20T01:20:51.769Z,82.06
2024-01-20T01:21:50.793Z,81.30
2024-01-20T01:22:51.959Z,81.21
2024-01-20T01:23:50.868Z,81.12
2024-01-20T01:24:50.919Z,81.40
2024-01-20T01:25:51.920Z,81.59
2024-01-20T01:26:50.953Z,81.77
2024-01-20T01:27:51.934Z,82.34
2024-01-20T01:28:50.959Z,81.96
2024-01-20T01:29:51.010Z,81.87
2024-01-20T01:30:52.057Z,81.59
2024-01-20T01:31:51.036Z,82.15
2024-01-20T01:32:52.073Z,81.59
2024-01-20T01:33:51.116Z,82.15
2024-01-20T01:34:51.135Z,81.87
2024-01-20T01:35:52.114Z,81.96
2024-01-20T01:36:51.135Z,81.77
2024-01-20T01:37:52.179Z,82.15
2024-01-20T01:38:51.180Z,81.96
2024-01-20T01:39:51.187Z,81.87
2024-01-20T01:40:52.261Z,81.30
2024-01-20T01:41:51.275Z,81.87
2024-01-20T01:42:52.288Z,81.21
2024-01-20T01:43:51.335Z,81.30
2024-01-20T01:44:51.326Z,81.30
2024-01-20T01:45:52.425Z,81.30
2024-01-20T01:46:51.455Z,81.30
2024-01-20T01:47:52.451Z,82.06
2024-01-20T01:48:51.493Z,82.06
2024-01-20T01:49:51.488Z,82.15
2024-01-20T01:50:52.484Z,82.25
2024-01-20T01:51:51.481Z,82.15
2024-01-20T01:52:52.523Z,82.15
2024-01-20T01:53:51.573Z,81.96
2024-01-20T01:54:51.578Z,82.34
2024-01-20T01:55:52.583Z,81.96
2024-01-20T01:56:51.689Z,82.06
2024-01-20T01:57:52.618Z,81.49
2024-01-20T01:58:51.736Z,81.68
2024-01-20T01:59:51.679Z,81.87
2024-01-20T02:00:52.740Z,81.59
2024-01-20T02:01:51.729Z,82.06
2024-01-20T02:02:52.778Z,81.68
2024-01-20T02:03:51.951Z,81.87
2024-01-20T02:04:51.775Z,81.87
2024-01-20T02:05:52.938Z,81.59
2024-01-20T02:06:51.978Z,81.96
2024-01-20T02:07:52.862Z,81.59
2024-01-20T02:08:51.927Z,82.06
2024-01-20T02:09:51.907Z,82.06
2024-01-20T02:10:52.951Z,81.96
2024-01-20T02:11:52.017Z,81.87
2024-01-20T02:12:52.970Z,82.15
2024-01-20T02:13:51.977Z,81.59
2024-01-20T02:14:52.050Z,82.25
2024-01-20T02:15:53.045Z,82.34
2024-01-20T02:16:52.091Z,82.25
2024-01-20T02:17:53.224Z,82.44
2024-01-20T02:18:52.167Z,82.06
2024-01-20T02:19:52.130Z,81.59
2024-01-20T02:20:53.157Z,82.06
2024-01-20T02:21:52.169Z,82.34
2024-01-20T02:22:53.217Z,82.15
2024-01-20T02:23:52.256Z,82.53
2024-01-20T02:24:52.248Z,82.44
2024-01-20T02:25:53.263Z,82.15
2024-01-20T02:26:52.305Z,82.15
2024-01-20T02:27:53.313Z,82.15
2024-01-20T02:28:52.339Z,82.25
2024-01-20T02:29:52.335Z,82.44
2024-01-20T02:30:53.375Z,81.96
2024-01-20T02:31:52.372Z,82.72
2024-01-20T02:32:53.548Z,82.44
2024-01-20T02:33:52.610Z,82.15
2024-01-20T02:34:52.423Z,82.53
2024-01-20T02:35:53.485Z,82.72
2024-01-20T02:36:52.488Z,82.53
2024-01-20T02:37:53.516Z,82.63
2024-01-20T02:38:52.634Z,82.91
2024-01-20T02:39:52.550Z,83.01
2024-01-20T02:40:53.583Z,82.82
2024-01-20T02:41:52.594Z,82.91
2024-01-20T02:42:53.618Z,82.82
2024-01-20T02:43:52.662Z,82.82
2024-01-20T02:44:52.803Z,82.91
2024-01-20T02:45:53.690Z,83.01
2024-01-20T02:46:52.701Z,83.20
2024-01-20T02:47:53.882Z,83.20
2024-01-20T02:48:52.828Z,83.01
2024-01-20T02:49:52.859Z,83.39
2024-01-20T02:50:53.847Z,83.39
2024-01-20T02:51:52.840Z,82.82
2024-01-20T02:52:53.870Z,83.10
2024-01-20T02:53:52.888Z,82.91
2024-01-20T02:54:52.890Z,83.29
2024-01-20T02:55:53.932Z,83.29
2024-01-20T02:56:52.979Z,83.20
2024-01-20T02:57:53.967Z,83.10
2024-01-20T02:58:52.985Z,83.29
2024-01-20T02:59:53.049Z,83.20
2024-01-20T03:00:54.070Z,83.39
2024-01-20T03:01:53.053Z,83.20
2024-01-20T03:02:54.179Z,83.48
2024-01-20T03:03:53.159Z,83.39
2024-01-20T03:04:53.232Z,83.48
2024-01-20T03:05:54.238Z,83.01
2024-01-20T03:06:53.181Z,83.20
2024-01-20T03:07:54.227Z,83.39
2024-01-20T03:08:53.252Z,83.48
2024-01-20T03:09:53.250Z,83.29
2024-01-20T03:10:54.280Z,83.67
2024-01-20T03:11:53.347Z,83.39
2024-01-20T03:12:54.317Z,83.29
2024-01-20T03:13:53.340Z,83.20
2024-01-20T03:14:53.410Z,83.20
2024-01-20T03:15:54.409Z,83.95
2024-01-20T03:16:53.417Z,83.76
2024-01-20T03:17:54.516Z,83.48
2024-01-20T03:18:53.489Z,83.20
2024-01-20T03:19:53.525Z,83.67
2024-01-20T03:20:54.551Z,83.48
2024-01-20T03:21:53.533Z,83.39
2024-01-20T03:22:54.565Z,83.95
2024-01-20T03:23:53.610Z,83.76
2024-01-20T03:24:53.633Z,84.05
2024-01-20T03:25:54.635Z,83.67
2024-01-20T03:26:55.035Z,83.67
2024-01-20T03:27:54.701Z,83.39
2024-01-20T03:28:53.694Z,83.10
2024-01-20T03:29:53.753Z,83.20
2024-01-20T03:30:54.751Z,83.86
2024-01-20T03:31:53.767Z,83.95
2024-01-20T03:32:54.902Z,83.01
2024-01-20T03:33:53.890Z,83.76
2024-01-20T03:34:53.832Z,82.91
2024-01-20T03:35:54.893Z,84.05
2024-01-20T03:36:53.885Z,84.05
2024-01-20T03:37:54.915Z,83.10
2024-01-20T03:38:53.937Z,83.48
2024-01-20T03:39:53.941Z,84.05
2024-01-20T03:40:54.978Z,83.76
2024-01-20T03:41:54.019Z,83.20
2024-01-20T03:42:55.024Z,83.86
2024-01-20T03:43:54.038Z,83.29
2024-01-20T03:44:54.062Z,83.67
2024-01-20T03:45:55.100Z,84.05
2024-01-20T03:46:54.106Z,84.23
2024-01-20T03:47:55.282Z,83.86
2024-01-20T03:48:54.377Z,83.39
2024-01-20T03:49:54.299Z,84.05
2024-01-20T03:50:55.244Z,83.48
2024-01-20T03:51:54.225Z,83.67
2024-01-20T03:52:55.261Z,84.14
2024-01-20T03:53:54.305Z,84.23
2024-01-20T03:54:54.293Z,83.67
2024-01-20T03:55:55.338Z,83.58
2024-01-20T03:56:54.377Z,83.95
2024-01-20T03:57:55.382Z,83.86
2024-01-20T03:58:54.410Z,84.05
2024-01-20T03:59:54.459Z,84.61
2024-01-20T04:00:55.462Z,83.95
2024-01-20T04:01:54.466Z,83.95
2024-01-20T04:02:55.499Z,83.95
2024-01-20T04:03:54.581Z,84.52
2024-01-20T04:04:54.530Z,84.33
2024-01-20T04:05:55.624Z,83.86
2024-01-20T04:06:54.564Z,84.61
2024-01-20T04:07:55.618Z,84.42
2024-01-20T04:08:54.635Z,84.33
2024-01-20T04:09:54.663Z,84.14
2024-01-20T04:10:55.679Z,84.61
2024-01-20T04:11:54.707Z,84.42
2024-01-20T04:12:55.736Z,84.33
2024-01-20T04:13:54.733Z,84.23
2024-01-20T04:14:54.768Z,84.23
2024-01-20T04:15:55.798Z,84.33
2024-01-20T04:16:54.814Z,84.42
2024-01-20T04:17:55.990Z,84.61
2024-01-20T04:18:54.932Z,84.42
2024-01-20T04:19:55.843Z,84.14
2024-01-20T04:20:55.929Z,83.95
2024-01-20T04:21:54.942Z,83.76
2024-01-20T04:22:55.963Z,83.86
2024-01-20T04:23:54.980Z,83.86
2024-01-20T04:24:55.000Z,84.05
2024-01-20T04:25:56.028Z,83.67
2024-01-20T04:26:55.048Z,83.86
2024-01-20T04:27:56.074Z,84.05
2024-01-20T04:28:55.089Z,83.67
2024-01-20T04:29:55.137Z,84.14
2024-01-20T04:30:56.140Z,84.23
2024-01-20T04:31:55.232Z,83.67
2024-01-20T04:32:56.329Z,83.48
2024-01-20T04:33:55.266Z,83.95
2024-01-20T04:34:55.229Z,83.67
2024-01-20T04:35:56.301Z,83.86
2024-01-20T04:36:55.281Z,84.14
2024-01-20T04:37:56.312Z,84.33
2024-01-20T04:38:55.343Z,84.61
2024-01-20T04:39:55.345Z,84.61
2024-01-20T04:40:56.381Z,84.33
2024-01-20T04:41:55.429Z,84.33
2024-01-20T04:42:56.480Z,84.42
2024-01-20T04:43:55.441Z,84.42
2024-01-20T04:44:55.517Z,84.33
2024-01-20T04:45:56.541Z,84.42
2024-01-20T04:46:55.497Z,84.33
2024-01-20T04:47:56.723Z,84.23
2024-01-20T04:48:55.735Z,84.81
2024-01-20T04:49:55.609Z,84.81
2024-01-20T04:50:56.648Z,84.23
2024-01-20T04:51:55.642Z,84.61
2024-01-20T04:52:56.686Z,84.23
2024-01-20T04:53:55.690Z,84.90
2024-01-20T04:54:55.689Z,84.90
2024-01-20T04:55:56.750Z,84.90
2024-01-20T04:56:55.810Z,84.71
2024-01-20T04:57:56.773Z,84.90
2024-01-20T04:58:55.784Z,84.90
2024-01-20T04:59:55.823Z,84.90
2024-01-20T05:00:56.874Z,84.71
2024-01-20T05:01:55.860Z,84.81
2024-01-20T05:02:56.902Z,84.71
2024-01-20T05:03:55.980Z,85.19
2024-01-20T05:04:55.913Z,84.90
2024-01-20T05:05:57.015Z,85.28
2024-01-20T05:06:56.033Z,85.09
2024-01-20T05:07:56.996Z,85.09
2024-01-20T05:08:56.060Z,84.90
2024-01-20T05:09:56.030Z,84.61
2024-01-20T05:10:57.072Z,85.00
2024-01-20T05:11:56.156Z,84.71
2024-01-20T05:12:57.141Z,84.81
2024-01-20T05:13:56.118Z,84.14
2024-01-20T05:14:56.168Z,84.05
2024-01-20T05:15:57.188Z,84.61
2024-01-20T05:16:56.215Z,84.52
2024-01-20T05:17:57.389Z,84.33
2024-01-20T05:18:56.390Z,85.00
2024-01-20T05:19:56.387Z,84.71
2024-01-20T05:20:57.357Z,85.19
2024-01-20T05:21:56.323Z,84.90
2024-01-20T05:22:57.354Z,84.61
2024-01-20T05:23:56.367Z,84.52
2024-01-20T05:24:56.393Z,84.90
2024-01-20T05:25:57.418Z,84.61
2024-01-20T05:26:56.511Z,84.61
2024-01-20T05:27:57.472Z,84.61
2024-01-20T05:28:56.475Z,84.71
2024-01-20T05:29:56.503Z,84.90
2024-01-20T05:30:57.543Z,85.00
2024-01-20T05:31:56.558Z,85.09
2024-01-20T05:32:57.652Z,84.90
2024-01-20T05:33:56.706Z,85.00
2024-01-20T05:34:56.640Z,85.09
2024-01-20T05:35:57.696Z,85.00
2024-01-20T05:36:56.680Z,84.90
2024-01-20T05:37:57.689Z,84.81
2024-01-20T05:38:56.724Z,84.61
2024-01-20T05:39:56.736Z,84.61
2024-01-20T05:40:57.768Z,84.52
2024-01-20T05:41:56.846Z,84.56
2024-01-20T05:42:57.836Z,84.81
2024-01-20T05:43:56.823Z,84.81
2024-01-20T05:44:56.882Z,84.81
2024-01-20T05:45:57.905Z,84.75
2024-01-20T05:46:56.931Z,84.66
2024-01-20T05:47:57.977Z,84.56
2024-01-20T05:48:57.176Z,84.61
2024-01-20T05:49:57.057Z,84.81
2024-01-20T05:50:58.211Z,84.81
2024-01-20T05:51:57.021Z,84.90
2024-01-20T05:52:58.062Z,84.90
2024-01-20T05:53:57.115Z,84.94
2024-01-20T05:54:57.100Z,84.90
2024-01-20T05:55:58.144Z,85.00
2024-01-20T05:56:57.188Z,84.61
2024-01-20T05:57:58.174Z,84.61
2024-01-20T05:58:57.184Z,85.00
2024-01-20T05:59:57.251Z,84.90
2024-01-20T06:00:58.343Z,85.19
2024-01-20T06:01:57.251Z,85.57
2024-01-20T06:02:58.432Z,84.90
2024-01-20T06:03:57.387Z,84.90
2024-01-20T06:04:57.392Z,85.09
2024-01-20T06:05:58.395Z,85.09
2024-01-20T06:06:57.377Z,85.09
2024-01-20T06:07:58.407Z,85.00
2024-01-20T06:08:57.469Z,85.09
2024-01-20T06:09:57.445Z,85.09
2024-01-20T06:10:58.492Z,85.38
2024-01-20T06:11:57.515Z,85.38
2024-01-20T06:12:58.541Z,85.75
2024-01-20T06:13:57.550Z,86.04
2024-01-20T06:14:57.698Z,85.85
2024-01-20T06:15:58.607Z,86.22
2024-01-20T06:16:57.628Z,86.22
2024-01-20T06:17:58.703Z,85.57
2024-01-20T06:18:57.738Z,85.66
2024-01-20T06:19:57.740Z,85.85
2024-01-20T06:20:58.797Z,86.04
2024-01-20T06:21:57.792Z,86.04
2024-01-20T06:22:58.758Z,86.04
2024-01-20T06:23:57.840Z,85.19
2024-01-20T06:24:58.018Z,85.28
2024-01-20T06:25:58.836Z,85.66
2024-01-20T06:26:57.871Z,85.75
2024-01-20T06:27:58.877Z,85.28
2024-01-20T06:28:57.905Z,85.28
2024-01-20T06:29:57.931Z,86.04
2024-01-20T06:30:58.968Z,85.75
2024-01-20T06:31:58.030Z,85.85
2024-01-20T06:32:59.105Z,85.85
2024-01-20T06:33:58.093Z,85.66
2024-01-20T06:34:58.038Z,85.85
2024-01-20T06:35:59.123Z,85.75
2024-01-20T06:36:58.149Z,86.13
2024-01-20T06:37:59.107Z,86.13
2024-01-20T06:38:58.132Z,86.41
2024-01-20T06:39:58.158Z,86.60
2024-01-20T06:40:59.186Z,86.41
2024-01-20T06:41:58.219Z,86.04
2024-01-20T06:42:59.258Z,86.13
2024-01-20T06:43:58.257Z,86.22
2024-01-20T06:45:00.170Z,86.13
2024-01-20T06:45:59.300Z,85.57
2024-01-20T06:46:58.361Z,86.32
2024-01-20T06:47:59.471Z,86.13
2024-01-20T06:48:58.504Z,86.41
2024-01-20T06:49:58.373Z,86.13
2024-01-20T06:50:59.469Z,86.32
2024-01-20T06:51:58.418Z,86.13
2024-01-20T06:52:59.474Z,85.94
2024-01-20T06:53:58.916Z,86.41
2024-01-20T06:54:58.502Z,86.41
2024-01-20T06:55:59.535Z,86.32
2024-01-20T06:56:58.588Z,86.41
2024-01-20T06:57:59.571Z,86.13
2024-01-20T06:58:58.588Z,86.22
2024-01-20T06:59:58.619Z,85.66
2024-01-20T07:00:59.707Z,86.13
2024-01-20T07:01:58.650Z,85.47
2024-01-20T07:02:59.739Z,85.85
2024-01-20T07:03:58.861Z,86.13
2024-01-20T07:04:58.730Z,86.32
2024-01-20T07:05:59.825Z,86.22
2024-01-20T07:06:58.775Z,86.32
2024-01-20T07:07:59.803Z,86.13
2024-01-20T07:08:58.848Z,86.22
2024-01-20T07:09:58.838Z,86.32
2024-01-20T07:10:59.881Z,86.51
2024-01-20T07:11:59.172Z,86.60
2024-01-20T07:12:59.945Z,86.22
2024-01-20T07:13:58.933Z,86.51
2024-01-20T07:14:59.028Z,86.98
2024-01-20T07:16:00.002Z,86.41
2024-01-20T07:16:59.012Z,86.98
2024-01-20T07:18:00.104Z,86.70
2024-01-20T07:18:59.152Z,86.51
2024-01-20T07:19:59.071Z,86.98
2024-01-20T07:21:00.150Z,86.89
2024-01-20T07:21:59.123Z,86.98
2024-01-20T07:23:00.178Z,86.41
2024-01-20T07:23:59.209Z,86.41
2024-01-20T07:24:59.210Z,86.51
2024-01-20T07:26:00.226Z,86.32
2024-01-20T07:26:59.341Z,86.41
2024-01-20T07:28:00.276Z,86.55
2024-01-20T07:29:00.517Z,86.46
2024-01-20T07:29:59.351Z,87.21
2024-01-20T07:31:00.345Z,87.21
2024-01-20T07:31:59.355Z,87.02
2024-01-20T07:33:00.636Z,86.46
2024-01-20T07:33:59.581Z,86.46
2024-01-20T07:34:59.467Z,86.08
2024-01-20T07:36:00.501Z,86.27
2024-01-20T07:36:59.476Z,85.61
2024-01-20T07:38:00.509Z,86.18
2024-01-20T07:38:59.607Z,86.08
2024-01-20T07:39:59.589Z,86.18
2024-01-20T07:41:00.584Z,86.36
2024-01-20T07:41:59.648Z,86.27
2024-01-20T07:43:00.683Z,86.27
2024-01-20T07:43:59.653Z,85.51
2024-01-20T07:44:59.681Z,86.18
2024-01-20T07:46:00.715Z,85.32
2024-01-20T07:46:59.733Z,85.32
2024-01-20T07:48:00.824Z,85.99
2024-01-20T07:48:59.835Z,85.99
2024-01-20T07:49:59.789Z,86.08
2024-01-20T07:51:00.880Z,84.94
2024-01-20T07:51:59.829Z,85.42
2024-01-20T07:53:00.864Z,85.70
2024-01-20T07:53:59.948Z,84.94
2024-01-20T07:54:59.913Z,85.61
2024-01-20T07:56:00.940Z,85.32
2024-01-20T07:56:59.987Z,85.32
2024-01-20T07:58:01.006Z,85.61
2024-01-20T07:59:00.001Z,85.23
2024-01-20T08:00:00.121Z,85.42
2024-01-20T08:01:01.092Z,85.51
2024-01-20T08:02:00.072Z,85.04
2024-01-20T08:03:01.141Z,85.13
2024-01-20T08:04:00.157Z,84.75
2024-01-20T08:05:00.187Z,84.56
2024-01-20T08:06:01.282Z,84.47
2024-01-20T08:07:00.292Z,84.19
2024-01-20T08:08:01.228Z,84.66
2024-01-20T08:09:00.377Z,84.28
2024-01-20T08:10:00.328Z,84.94
2024-01-20T08:11:01.305Z,84.94
2024-01-20T08:12:00.371Z,84.94
2024-01-20T08:13:01.373Z,84.75
2024-01-20T08:14:00.354Z,85.23
2024-01-20T08:15:00.442Z,85.13
2024-01-20T08:16:01.415Z,85.13
2024-01-20T08:17:00.450Z,85.32
2024-01-20T08:18:01.529Z,85.32
2024-01-20T08:19:00.616Z,85.51
2024-01-20T08:20:00.660Z,85.13
2024-01-20T08:21:01.554Z,84.85
2024-01-20T08:22:00.572Z,84.75
2024-01-20T08:23:01.588Z,84.85
2024-01-20T08:24:00.653Z,84.85
2024-01-20T08:25:00.666Z,84.56
2024-01-20T08:26:01.642Z,84.56
2024-01-20T08:27:00.706Z,84.94
2024-01-20T08:28:01.695Z,85.23
2024-01-20T08:29:00.738Z,85.04
2024-01-20T08:30:00.857Z,85.51
2024-01-20T08:31:01.858Z,85.13
2024-01-20T08:32:00.844Z,84.66
2024-01-20T08:33:04.350Z,84.56
2024-01-20T08:34:00.950Z,84.75
2024-01-20T08:35:00.863Z,84.66
2024-01-20T08:36:01.911Z,84.85
2024-01-20T08:37:00.902Z,84.38
2024-01-20T08:38:01.926Z,84.47
2024-01-20T08:39:00.965Z,83.71
2024-01-20T08:40:00.972Z,84.38
2024-01-20T08:41:02.057Z,84.19
2024-01-20T08:42:01.071Z,84.47
2024-01-20T08:43:02.064Z,84.66
2024-01-20T08:44:01.063Z,84.47
2024-01-20T08:45:01.305Z,83.81
2024-01-20T08:46:02.126Z,83.62
2024-01-20T08:47:01.142Z,84.19
2024-01-20T08:48:02.226Z,84.28
2024-01-20T08:49:01.220Z,83.71
2024-01-20T08:50:01.215Z,84.00
2024-01-20T08:51:02.293Z,84.00
2024-01-20T08:52:01.260Z,84.09
2024-01-20T08:53:02.353Z,83.71
2024-01-20T08:54:01.328Z,84.47
2024-01-20T08:55:01.335Z,84.38
2024-01-20T08:56:02.375Z,84.28
2024-01-20T08:57:01.434Z,84.47
2024-01-20T08:58:02.429Z,84.47
2024-01-20T08:59:01.440Z,84.47
2024-01-20T09:00:01.494Z,84.28
2024-01-20T09:01:02.582Z,84.28
2024-01-20T09:02:01.489Z,84.28
2024-01-20T09:03:02.759Z,84.56
2024-01-20T09:04:01.544Z,84.47
2024-01-20T09:05:01.574Z,84.56
2024-01-20T09:06:02.732Z,84.09
2024-01-20T09:07:01.735Z,84.56
2024-01-20T09:08:02.657Z,84.56
2024-01-20T09:09:01.702Z,84.28
2024-01-20T09:10:01.697Z,83.62
2024-01-20T09:11:02.717Z,84.04
2024-01-20T09:12:01.765Z,83.90
2024-01-20T09:13:02.772Z,84.09
2024-01-20T09:14:02.145Z,83.94
2024-01-20T09:15:01.948Z,83.71
2024-01-20T09:16:02.962Z,83.90
2024-01-20T09:17:01.857Z,83.71
2024-01-20T09:18:02.978Z,83.71
2024-01-20T09:19:02.140Z,83.71
2024-01-20T09:20:02.203Z,83.56
2024-01-20T09:21:02.979Z,83.81
2024-01-20T09:22:01.958Z,83.52
2024-01-20T09:23:03.050Z,84.19
2024-01-20T09:24:03.029Z,84.19
2024-01-20T09:25:02.028Z,84.00
2024-01-20T09:26:03.070Z,84.47
2024-01-20T09:27:02.143Z,83.90
2024-01-20T09:28:03.121Z,84.38
2024-01-20T09:29:02.122Z,84.38
2024-01-20T09:30:02.231Z,84.56
2024-01-20T09:31:03.179Z,83.90
2024-01-20T09:32:02.204Z,84.38
2024-01-20T09:33:03.336Z,84.00
2024-01-20T09:34:02.392Z,83.81
2024-01-20T09:35:02.257Z,84.00
2024-01-20T09:36:03.342Z,83.90
2024-01-20T09:37:02.337Z,84.56
2024-01-20T09:38:03.363Z,84.19
2024-01-20T09:39:02.448Z,83.90
2024-01-20T09:40:02.427Z,84.00
2024-01-20T09:41:03.410Z,83.62
2024-01-20T09:42:02.485Z,83.52
2024-01-20T09:43:03.455Z,83.62
2024-01-20T09:44:02.492Z,84.00
2024-01-20T09:45:02.600Z,84.00
2024-01-20T09:46:03.537Z,84.28
2024-01-20T09:47:02.576Z,84.04
2024-01-20T09:48:03.704Z,83.52
2024-01-20T09:49:02.846Z,84.00
2024-01-20T09:50:02.628Z,84.00
2024-01-20T09:51:03.656Z,84.28
2024-01-20T09:52:02.670Z,83.94
2024-01-20T09:53:03.694Z,84.32
2024-01-20T09:54:02.782Z,83.85
2024-01-20T09:55:02.731Z,83.09
2024-01-20T09:56:03.782Z,85.93
2024-01-20T09:57:02.814Z,95.88
2024-01-20T09:58:03.816Z,95.60
2024-01-20T09:59:02.844Z,93.32
2024-01-20T10:00:03.008Z,91.28
2024-01-20T10:01:04.089Z,90.62
2024-01-20T10:02:02.907Z,86.54
2024-01-20T10:03:03.968Z,87.39
2024-01-20T10:04:03.113Z,85.40
2024-01-20T10:05:03.052Z,87.05
2024-01-20T10:06:04.056Z,83.83
2024-01-20T10:07:03.042Z,84.40
2024-01-20T10:08:04.070Z,80.27
2024-01-20T10:09:03.110Z,77.48
2024-01-20T10:10:03.178Z,77.01
2024-01-20T10:11:04.138Z,77.48
2024-01-20T10:12:03.185Z,78.05
2024-01-20T10:13:04.279Z,78.39
2024-01-20T10:14:03.217Z,78.96
2024-01-20T10:15:03.303Z,79.00
2024-01-20T10:16:04.257Z,79.25
2024-01-20T10:17:03.266Z,79.63
2024-01-20T10:18:04.450Z,79.53
2024-01-20T10:19:03.348Z,78.96
2024-01-20T10:20:03.503Z,79.19
2024-01-20T10:21:04.403Z,78.53
2024-01-20T10:22:03.397Z,78.24
2024-01-20T10:23:04.438Z,77.67
2024-01-20T10:24:03.486Z,77.29
2024-01-20T10:25:03.464Z,77.35
2024-01-20T10:26:04.506Z,77.64
2024-01-20T10:27:03.532Z,78.15
2024-01-20T10:28:04.562Z,78.15
2024-01-20T10:29:03.598Z,77.67
2024-01-20T10:30:03.712Z,76.92
2024-01-20T10:31:04.646Z,76.54
2024-01-20T10:32:03.729Z,76.44
2024-01-20T10:33:09.796Z,77.11
2024-01-20T10:34:04.037Z,76.63
2024-01-20T10:35:04.137Z,77.01
2024-01-20T10:36:04.953Z,76.95
2024-01-20T10:37:03.788Z,75.62
2024-01-20T10:38:04.847Z,75.24
2024-01-20T10:39:04.050Z,75.05
2024-01-20T10:40:03.888Z,75.02
2024-01-20T10:41:04.912Z,74.83
2024-01-20T10:42:03.970Z,76.06
2024-01-20T10:43:04.964Z,75.87
2024-01-20T10:44:04.087Z,75.68
2024-01-20T10:45:04.046Z,75.15
2024-01-20T10:46:05.043Z,75.53
2024-01-20T10:47:04.054Z,75.62
2024-01-20T10:48:06.182Z,74.68
2024-01-20T10:49:04.220Z,74.39
2024-01-20T10:50:04.136Z,74.11
2024-01-20T10:51:05.239Z,73.44
2024-01-20T10:52:04.282Z,73.54
2024-01-20T10:53:05.220Z,73.72
2024-01-20T10:54:04.821Z,74.87
2024-01-20T10:55:04.276Z,74.49
2024-01-20T10:56:05.305Z,73.16
2024-01-20T10:57:04.333Z,73.35
2024-01-20T10:58:05.363Z,73.72
2024-01-20T10:59:04.368Z,73.92
2024-01-20T11:00:04.497Z,74.39
2024-01-20T11:01:05.456Z,74.49
2024-01-20T11:02:04.462Z,74.35
2024-01-20T11:03:05.522Z,74.64
2024-01-20T11:04:04.712Z,74.96
2024-01-20T11:05:04.533Z,75.05
2024-01-20T11:06:05.673Z,74.39
2024-01-20T11:07:04.653Z,74.58
2024-01-20T11:08:05.635Z,75.02
2024-01-20T11:09:04.679Z,75.02
2024-01-20T11:10:04.689Z,75.21
2024-01-20T11:11:05.791Z,75.68
2024-01-20T11:12:04.909Z,75.68
2024-01-20T11:13:05.778Z,75.31
2024-01-20T11:14:04.789Z,75.31
2024-01-20T11:15:04.901Z,75.87
2024-01-20T11:16:05.858Z,75.87
2024-01-20T11:17:04.882Z,75.87
2024-01-20T11:18:05.942Z,75.78
2024-01-20T11:19:05.063Z,75.40
2024-01-20T11:20:04.954Z,75.87
2024-01-20T11:21:06.044Z,75.68
2024-01-20T11:22:05.008Z,76.34
2024-01-20T11:23:06.023Z,77.01
2024-01-20T11:24:05.087Z,77.14
2024-01-20T11:25:05.075Z,75.81
2024-01-20T11:26:06.111Z,75.24
2024-01-20T11:27:05.251Z,75.05
2024-01-20T11:28:06.171Z,74.92
2024-01-20T11:29:05.182Z,75.34
2024-01-20T11:30:05.240Z,75.34
2024-01-20T11:31:06.244Z,75.72
2024-01-20T11:32:05.267Z,75.76
2024-01-20T11:33:06.450Z,74.75
2024-01-20T11:34:05.492Z,71.94
2024-01-20T11:35:05.328Z,71.18
2024-01-20T11:36:06.416Z,69.31
2024-01-20T11:37:05.453Z,68.21
2024-01-20T11:38:06.446Z,68.33
2024-01-20T11:39:05.464Z,65.48
2024-01-20T11:40:05.501Z,63.96
2024-01-20T11:41:06.521Z,63.86
2024-01-20T11:42:05.590Z,65.03
2024-01-20T11:43:06.592Z,64.12
2024-01-20T11:44:05.614Z,62.21
2024-01-20T11:45:05.675Z,61.93
2024-01-20T11:46:06.678Z,59.95
2024-01-20T11:47:05.701Z,60.24
2024-01-20T11:48:08.223Z,60.17
2024-01-20T11:49:05.872Z,58.97
2024-01-20T11:50:05.862Z,58.97
2024-01-20T11:51:06.897Z,59.35
2024-01-20T11:52:05.860Z,60.94
2024-01-20T11:53:06.915Z,59.31
2024-01-20T11:54:05.964Z,56.93
2024-01-20T11:55:06.001Z,57.79
2024-01-20T11:56:07.005Z,56.23
2024-01-20T11:57:06.076Z,53.65
2024-01-20T11:58:07.065Z,53.84
2024-01-20T11:59:06.086Z,53.36
2024-01-20T12:00:06.357Z,54.32
2024-01-20T12:01:07.255Z,53.17
2024-01-20T12:02:06.213Z,53.65
2024-01-20T12:03:07.350Z,54.41
2024-01-20T12:04:06.256Z,53.49
2024-01-20T12:05:12.095Z,54.82
2024-01-20T12:06:09.701Z,53.89
2024-01-20T12:07:06.401Z,50.55
2024-01-20T12:08:07.438Z,50.35
2024-01-20T12:09:06.493Z,50.07
2024-01-20T12:10:06.472Z,50.64
2024-01-20T12:11:07.526Z,51.03
2024-01-20T12:12:06.568Z,50.74
2024-01-20T12:13:07.588Z,50.64
2024-01-20T12:14:06.629Z,50.55
2024-01-20T12:15:06.695Z,50.09
2024-01-20T12:16:07.704Z,48.85
2024-01-20T12:17:06.738Z,48.09
2024-01-20T12:18:07.967Z,47.80
2024-01-20T12:19:06.882Z,47.73
2024-01-20T12:20:06.848Z,48.39
2024-01-20T12:21:07.939Z,48.59
2024-01-20T12:22:06.911Z,48.11
2024-01-20T12:23:07.979Z,48.78
2024-01-20T12:24:07.020Z,48.23
2024-01-20T12:25:07.029Z,47.66
2024-01-20T12:26:08.086Z,49.19
2024-01-20T12:27:07.196Z,48.28
2024-01-20T12:28:08.157Z,45.12
2024-01-20T12:29:07.178Z,44.06
2024-01-20T12:30:07.264Z,44.13
2024-01-20T12:31:08.266Z,44.31
2024-01-20T12:32:07.295Z,44.76
2024-01-20T12:33:08.409Z,44.23
2024-01-20T12:34:07.449Z,43.20
2024-01-20T12:35:07.413Z,43.20
2024-01-20T12:36:08.531Z,42.40
2024-01-20T12:37:08.904Z,43.92
2024-01-20T12:38:08.541Z,44.69
2024-01-20T12:39:07.573Z,44.98
2024-01-20T12:40:07.600Z,43.33
2024-01-20T12:41:08.666Z,44.84
2024-01-20T12:42:07.733Z,46.53
2024-01-20T12:43:08.727Z,47.61
2024-01-20T12:44:07.768Z,46.37
2024-01-20T12:45:07.834Z,46.30
2024-01-20T12:46:08.864Z,44.12
2024-01-20T12:47:07.897Z,43.71
2024-01-20T12:48:09.001Z,43.95
2024-01-20T12:49:08.015Z,45.84
2024-01-20T12:50:08.050Z,47.13
2024-01-20T12:51:09.086Z,48.83
2024-01-20T12:52:08.100Z,50.45
2024-01-20T12:53:09.112Z,51.40